Time;durP1;ratioP1;P1;durP2;ratioP2;P2;SDS_P1;SDS_P2;PMS_P1;PMS_P2;Temp;Humidity;BMP_temperature;BMP_pressure;BME280_temperature;BME280_humidity;BME280_pressure;Samples;Min_cycle;Max_cycle;Signal;HPM_P1;HPM_P2
2024/02/09 00:00:40;;;;;;;7.30;2.70;;;;;;;3.83;56.51;99640.35;106330;1257;61427;-56
2024/02/09 00:03:10;;;;;;;6.10;1.50;;;;;;;3.79;56.55;99641.28;104310;1257;64729;-58
2024/02/09 00:05:38;;;;;;;6.50;2.80;;;;;;;3.74;56.63;99641.98;108167;1259;61098;-58
2024/02/09 00:08:06;;;;;;;7.40;2.90;;;;;;;3.71;56.83;99640.02;104172;1257;60397;-59
2024/02/09 00:10:36;;;;;;;6.00;2.20;;;;;;;3.70;56.85;99639.41;104292;1257;64971;-56
2024/02/09 00:13:05;;;;;;;7.50;1.80;;;;;;;3.70;56.78;99642.34;108867;1253;60285;-59
2024/02/09 00:15:33;;;;;;;6.40;1.80;;;;;;;3.77;56.88;99645.60;108768;1257;62461;-58
2024/02/09 00:18:02;;;;;;;5.30;1.40;;;;;;;3.86;56.95;99644.51;108871;1253;58993;-58
2024/02/09 00:20:31;;;;;;;4.60;1.30;;;;;;;3.97;56.95;99644.33;107669;1257;59942;-56
2024/02/09 00:22:59;;;;;;;3.60;1.30;;;;;;;4.05;56.91;99639.08;104265;1253;67402;-56
2024/02/09 00:25:27;;;;;;;4.30;1.70;;;;;;;4.14;56.87;99637.13;104327;1257;60522;-57
2024/02/09 00:27:55;;;;;;;4.80;1.40;;;;;;;4.20;56.85;99635.02;104350;1259;63940;-55
2024/02/09 00:30:24;;;;;;;4.30;2.20;;;;;;;4.20;56.89;99629.65;104218;1258;60556;-56
2024/02/09 00:32:53;;;;;;;5.30;1.70;;;;;;;4.21;56.81;99627.66;108811;1253;58603;-56
2024/02/09 00:35:23;;;;;;;4.50;1.80;;;;;;;4.19;56.79;99629.35;108749;1253;63748;-56
2024/02/09 00:38:00;;;;;;;5.20;1.70;;;;;;;4.18;56.78;99628.56;106719;1257;60216;-58
2024/02/09 00:40:32;;;;;;;6.30;1.80;;;;;;;4.16;56.72;99623.83;104022;1254;64247;-59
2024/02/09 00:43:03;;;;;;;5.30;2.20;;;;;;;4.10;56.59;99618.83;104102;1253;60538;-58
2024/02/09 00:45:33;;;;;;;5.80;1.70;;;;;;;4.03;56.69;99614.39;104167;1253;61102;-55
2024/02/09 00:48:06;;;;;;;4.60;1.50;;;;;;;3.99;56.79;99610.02;108506;1253;286055;-56
2024/02/09 01:02:57;;;;;;;5.50;1.90;;;;;;;3.91;57.54;99596.70;101706;1288;604394;-56
2024/02/09 01:05:25;;;;;;;6.90;2.90;;;;;;;4.56;56.16;99593.92;104969;1268;143753;-55
2024/02/09 01:07:53;;;;;;;3.80;1.00;;;;;;;4.50;56.08;99593.77;103149;1268;59297;-54
2024/02/09 01:10:21;;;;;;;4.70;1.60;;;;;;;4.41;56.12;99589.50;103338;1271;63276;-56
2024/02/09 02:46:45;;;;;;;5.60;1.40;;;;;;;4.06;57.56;99498.09;104128;1259;66096;-59
2024/02/09 03:05:52;;;;;;;5.30;2.00;;;;;;;3.81;57.48;99495.25;104188;1257;62586;-64
2024/02/09 03:08:20;;;;;;;4.50;1.70;;;;;;;3.74;57.68;99490.54;108442;1254;59012;-64
2024/02/09 03:10:51;;;;;;;5.10;2.10;;;;;;;3.67;57.77;99488.34;108434;1256;59296;-62
2024/02/09 03:13:21;;;;;;;5.00;2.10;;;;;;;3.65;57.78;99487.13;108452;1258;66347;-60
2024/02/09 03:15:52;;;;;;;7.00;2.60;;;;;;;3.62;57.89;99488.33;106692;1260;60224;-58
2024/02/09 03:18:24;;;;;;;5.00;1.80;;;;;;;3.61;57.93;99481.48;103963;1257;66127;-57
2024/02/09 03:20:58;;;;;;;3.90;1.70;;;;;;;3.57;57.88;99478.43;103965;1256;59641;-56
2024/02/09 03:23:26;;;;;;;6.00;2.40;;;;;;;3.53;57.93;99472.83;103954;1261;60099;-56
2024/02/09 03:25:55;;;;;;;6.10;2.00;;;;;;;3.49;58.00;99469.41;103885;1254;63318;-56
2024/02/09 03:28:22;;;;;;;6.50;2.20;;;;;;;3.47;58.12;99467.34;104080;1261;61416;-56
2024/02/09 03:30:50;;;;;;;5.80;2.30;;;;;;;3.49;58.20;99463.85;104102;1261;63767;-55
2024/02/09 03:33:18;;;;;;;3.20;1.50;;;;;;;3.57;58.10;99465.77;104194;1263;59747;-56
2024/02/09 03:35:46;;;;;;;5.10;1.50;;;;;;;3.66;58.05;99459.33;104064;1256;61174;-56
2024/02/09 03:38:14;;;;;;;5.60;1.40;;;;;;;3.72;58.04;99451.79;104083;1261;62867;-56
2024/02/09 03:40:42;;;;;;;7.50;1.90;;;;;;;3.75;57.96;99449.15;104069;1262;61671;-56
2024/02/09 03:43:10;;;;;;;5.50;2.00;;;;;;;3.80;57.95;99443.82;103919;1260;62620;-56
2024/02/09 03:45:41;;;;;;;4.30;1.90;;;;;;;3.83;57.90;99438.39;108403;1258;59586;-57
2024/02/09 03:48:09;;;;;;;4.60;1.50;;;;;;;3.84;57.81;99432.95;108409;1254;58894;-57
2024/02/09 03:50:37;;;;;;;7.20;2.10;;;;;;;3.86;57.80;99433.84;108360;1256;62838;-57
2024/02/09 03:53:04;;;;;;;8.10;1.90;;;;;;;3.87;57.64;99432.91;108436;1257;61757;-56
2024/02/09 03:55:35;;;;;;;6.30;2.60;;;;;;;3.84;57.60;99429.11;108394;1258;66717;-56
2024/02/09 03:58:03;;;;;;;5.20;2.20;;;;;;;3.81;57.60;99425.02;107488;1260;59764;-55
2024/02/09 04:00:31;;;;;;;5.80;1.70;;;;;;;3.75;57.52;99419.65;104622;1260;59532;-56
2024/02/09 04:02:59;;;;;;;8.20;2.90;;;;;;;3.68;57.52;99416.15;104015;1256;62852;-55
2024/02/09 04:05:26;;;;;;;8.30;2.00;;;;;;;3.63;57.65;99417.17;104018;1261;63019;-56
2024/02/09 04:07:59;;;;;;;7.70;2.30;;;;;;;3.58;57.72;99416.29;104031;1261;62526;-55
2024/02/09 04:10:27;;;;;;;6.30;2.40;;;;;;;3.53;57.80;99417.52;108387;1260;59580;-55
2024/02/09 04:13:12;;;;;;;4.30;1.70;;;;;;;3.48;57.87;99420.21;105965;1260;59372;-55
2024/02/09 04:15:40;;;;;;;4.40;1.60;;;;;;;3.46;57.86;99420.41;104122;1259;64183;-55
2024/02/09 04:18:08;;;;;;;6.40;2.40;;;;;;;3.39;57.91;99420.67;103943;1260;62636;-55
2024/02/09 04:20:37;;;;;;;5.70;2.10;;;;;;;3.35;58.11;99420.95;104005;1262;62741;-55
2024/02/09 04:23:07;;;;;;;6.50;2.20;;;;;;;3.36;58.13;99423.98;103944;1261;60442;-57
2024/02/09 04:25:36;;;;;;;5.00;1.50;;;;;;;3.43;58.09;99430.32;108477;1260;60162;-55
2024/02/09 04:28:04;;;;;;;5.10;1.50;;;;;;;3.50;58.09;99425.84;108478;1257;64114;-55
2024/02/09 04:30:32;;;;;;;5.20;1.40;;;;;;;3.56;57.94;99426.14;105277;1256;63306;-55
2024/02/09 04:33:00;;;;;;;5.90;1.80;;;;;;;3.63;58.04;99427.93;106271;1256;63767;-55
2024/02/09 04:35:28;;;;;;;4.20;1.50;;;;;;;3.69;58.10;99429.07;104866;1256;59680;-55
2024/02/09 04:37:55;;;;;;;5.80;2.10;;;;;;;3.74;58.07;99426.67;104858;1260;59685;-55
2024/02/09 04:40:24;;;;;;;6.10;1.90;;;;;;;3.73;58.10;99422.90;104850;1260;64102;-55
2024/02/09 04:42:52;;;;;;;5.50;1.80;;;;;;;3.75;58.09;99422.98;105465;1257;61564;-55
2024/02/09 04:45:20;;;;;;;4.40;1.60;;;;;;;3.72;58.06;99420.55;104561;1261;63961;-56
2024/02/09 04:47:47;;;;;;;7.80;2.90;;;;;;;3.70;57.98;99417.78;104326;1257;59645;-57
2024/02/09 04:50:16;;;;;;;5.50;2.10;;;;;;;3.66;57.90;99415.92;104918;1256;59705;-59
2024/02/09 04:52:43;;;;;;;7.20;1.80;;;;;;;3.61;57.92;99415.38;103958;1265;64170;-58
2024/02/09 04:55:11;;;;;;;6.30;2.30;;;;;;;3.55;58.02;99411.08;104138;1261;62273;-60
2024/02/09 04:57:38;;;;;;;4.70;2.00;;;;;;;3.51;58.05;99410.16;104002;1263;62510;-60
2024/02/09 05:00:07;;;;;;;5.60;1.70;;;;;;;3.46;58.07;99411.70;104501;1261;61545;-56
2024/02/09 05:02:35;;;;;;;7.20;1.90;;;;;;;3.43;58.13;99412.30;108461;1260;57538;-60
2024/02/09 05:05:03;;;;;;;7.90;2.80;;;;;;;3.41;58.32;99412.61;108500;1260;62906;-60
2024/02/09 05:07:31;;;;;;;7.10;2.70;;;;;;;3.37;58.38;99407.09;108377;1256;63938;-61
2024/02/09 05:09:59;;;;;;;4.70;2.00;;;;;;;3.37;58.42;99401.88;105552;1256;63783;-60
2024/02/09 05:12:30;;;;;;;5.80;1.70;;;;;;;3.39;58.38;99399.49;108457;1256;58095;-60
2024/02/09 05:14:58;;;;;;;7.50;2.30;;;;;;;3.46;58.22;99398.67;108462;1261;57830;-60
2024/02/09 05:17:26;;;;;;;5.40;1.60;;;;;;;3.54;58.05;99395.59;108430;1255;64116;-59
2024/02/09 05:19:57;;;;;;;4.80;1.70;;;;;;;3.62;58.02;99392.63;108578;1258;60097;-58
2024/02/09 05:22:28;;;;;;;6.90;2.70;;;;;;;3.69;57.90;99392.84;106613;1256;63841;-57
2024/02/09 05:24:57;;;;;;;5.70;2.60;;;;;;;3.75;57.92;99394.70;108479;1257;58910;-58
2024/02/09 05:27:25;;;;;;;5.50;2.20;;;;;;;3.79;57.93;99400.98;108436;1254;61787;-52
2024/02/09 05:29:54;;;;;;;6.70;2.90;;;;;;;3.79;57.70;99400.85;108445;1261;67089;-53
2024/02/09 05:32:22;;;;;;;4.70;1.90;;;;;;;3.77;57.70;99405.34;108581;1260;60956;-51
2024/02/09 05:34:50;;;;;;;7.40;2.50;;;;;;;3.75;57.53;99401.77;108433;1262;63714;-51
2024/02/09 05:37:18;;;;;;;7.10;3.20;;;;;;;3.70;57.32;99395.39;104803;1260;60573;-50
2024/02/09 05:39:45;;;;;;;5.40;1.90;;;;;;;3.61;57.37;99395.41;104099;1260;60470;-53
2024/02/09 05:42:13;;;;;;;6.30;1.60;;;;;;;3.53;57.48;99393.06;104093;1257;64958;-51
2024/02/09 05:44:41;;;;;;;5.80;1.70;;;;;;;3.43;57.53;99400.11;103995;1263;61320;-51
2024/02/09 05:47:08;;;;;;;12.40;3.90;;;;;;;3.33;57.80;99400.05;104459;1260;63797;-51
2024/02/09 05:49:38;;;;;;;4.40;1.50;;;;;;;3.28;57.99;99398.48;105063;1258;59426;-51
2024/02/09 05:52:08;;;;;;;5.20;1.60;;;;;;;3.30;57.96;99399.79;104910;1262;60368;-51
2024/02/09 05:54:36;;;;;;;5.00;1.70;;;;;;;3.34;58.08;99397.41;105207;1257;67111;-51
2024/02/09 05:57:06;;;;;;;17.30;4.90;;;;;;;3.37;58.09;99389.90;105366;1258;62017;-51
2024/02/09 05:59:34;;;;;;;5.70;1.30;;;;;;;3.42;58.15;99396.38;105932;1260;63755;-54
2024/02/09 06:02:02;;;;;;;5.80;1.90;;;;;;;3.46;58.15;99399.72;108867;1257;59656;-54
2024/02/09 06:04:32;;;;;;;5.10;1.90;;;;;;;3.45;58.18;99403.77;108872;1257;58524;-55
2024/02/09 06:07:01;;;;;;;4.70;1.80;;;;;;;3.44;58.14;99403.02;105659;1257;73341;-52
2024/02/09 06:09:30;;;;;;;5.20;1.30;;;;;;;3.42;58.16;99402.10;105061;1261;62297;-52
2024/02/09 06:12:00;;;;;;;6.10;2.50;;;;;;;3.39;58.10;99399.55;104957;1260;62466;-53
2024/02/09 06:14:28;;;;;;;5.20;1.90;;;;;;;3.33;58.06;99399.21;104999;1260;60499;-55
2024/02/09 06:16:56;;;;;;;3.90;1.30;;;;;;;3.28;58.09;99392.63;104996;1257;61387;-53
2024/02/09 06:19:23;;;;;;;4.40;1.20;;;;;;;3.22;58.02;99392.17;104927;1257;64853;-55
2024/02/09 06:21:52;;;;;;;6.70;1.90;;;;;;;3.14;57.98;99390.05;106555;1257;60508;-56
2024/02/09 06:24:24;;;;;;;7.60;1.60;;;;;;;3.07;58.12;99393.58;106433;1260;64305;-50
2024/02/09 06:26:52;;;;;;;4.70;2.10;;;;;;;3.03;58.21;99394.77;105674;1255;60512;-54
2024/02/09 06:29:21;;;;;;;6.10;1.60;;;;;;;3.00;58.30;99394.43;104724;1260;60379;-57
2024/02/09 06:31:56;;;;;;;5.20;2.30;;;;;;;3.04;58.26;99393.98;108455;1258;65545;-58
2024/02/09 06:34:24;;;;;;;4.80;1.90;;;;;;;3.11;58.32;99391.64;104191;1257;63315;-64
2024/02/09 06:36:53;;;;;;;5.20;2.10;;;;;;;3.19;58.32;99392.52;107584;1260;71576;-58
2024/02/09 06:39:23;;;;;;;6.00;1.60;;;;;;;3.27;58.22;99396.33;104129;1257;63203;-56
2024/02/09 06:41:51;;;;;;;6.30;2.10;;;;;;;3.33;58.18;99394.89;108476;1258;59649;-69
2024/02/09 06:44:19;;;;;;;4.40;1.30;;;;;;;3.36;58.15;99396.27;107467;1254;68755;-66
2024/02/09 06:46:47;;;;;;;6.30;3.00;;;;;;;3.36;58.13;99397.63;104405;1257;62072;-71
2024/02/09 06:49:15;;;;;;;6.40;1.80;;;;;;;3.33;58.04;99404.21;103941;1258;66454;-74
2024/02/09 06:51:44;;;;;;;6.40;1.80;;;;;;;3.27;57.95;99399.41;108542;1256;60297;-70
2024/02/09 06:54:12;;;;;;;4.90;1.60;;;;;;;3.21;57.99;99396.54;108560;1254;59715;-70
2024/02/09 06:56:41;;;;;;;6.20;1.70;;;;;;;3.14;57.91;99401.15;108480;1257;63966;-72
2024/02/09 06:59:10;;;;;;;6.00;3.20;;;;;;;3.08;57.99;99398.91;108646;1261;60353;-76
2024/02/09 07:01:39;;;;;;;4.60;1.80;;;;;;;3.03;57.99;99396.80;108483;1258;66851;-73
2024/02/09 07:04:09;;;;;;;5.90;2.00;;;;;;;2.99;57.96;99391.69;108445;1260;59885;-60
2024/02/09 07:06:43;;;;;;;5.20;1.90;;;;;;;2.98;58.05;99391.25;108531;1255;58941;-65
2024/02/09 07:09:17;;;;;;;5.30;1.50;;;;;;;3.04;57.89;99392.06;108436;1257;63825;-65
2024/02/09 07:12:03;;;;;;;4.90;1.70;;;;;;;3.13;57.63;99390.96;108477;1256;61369;-66
2024/02/09 07:14:31;;;;;;;6.20;2.50;;;;;;;3.21;57.56;99391.70;108492;1254;62535;-67
2024/02/09 07:16:59;;;;;;;4.00;1.40;;;;;;;3.26;57.53;99391.16;108462;1257;60985;-69
2024/02/09 07:19:26;;;;;;;6.20;1.80;;;;;;;3.29;57.47;99398.78;108504;1257;59953;-72
2024/02/09 07:21:54;;;;;;;4.30;1.50;;;;;;;3.30;57.38;99398.19;108478;1257;64968;-70
2024/02/09 07:24:25;;;;;;;7.20;2.50;;;;;;;3.30;57.28;99398.88;108237;1260;61308;-69
2024/02/09 07:26:53;;;;;;;5.00;1.50;;;;;;;3.29;57.23;99398.57;104136;1258;62458;-71
2024/02/09 07:29:22;;;;;;;4.50;1.80;;;;;;;3.27;57.25;99397.86;104649;1257;60582;-74
2024/02/09 07:31:50;;;;;;;5.90;2.30;;;;;;;3.24;57.19;99398.27;103957;1255;60939;-72
2024/02/09 07:34:18;;;;;;;6.10;2.20;;;;;;;3.19;57.24;99398.57;104052;1263;67591;-75
2024/02/09 07:36:47;;;;;;;5.00;1.60;;;;;;;3.11;57.35;99393.31;107525;1257;60263;-72
2024/02/09 07:39:14;;;;;;;5.60;2.00;;;;;;;3.07;57.55;99389.77;104044;1256;64678;-67
2024/02/09 07:41:42;;;;;;;6.40;2.60;;;;;;;3.04;57.73;99390.67;103979;1257;60565;-74
2024/02/09 07:44:10;;;;;;;4.50;1.10;;;;;;;3.03;57.69;99387.12;108476;1256;60272;-72
2024/02/09 07:46:38;;;;;;;4.30;1.50;;;;;;;3.09;57.56;99382.20;108413;1257;63749;-64
2024/02/09 07:49:05;;;;;;;4.70;1.70;;;;;;;3.18;57.40;99380.96;108416;1260;60236;-66
2024/02/09 07:51:33;;;;;;;4.90;1.50;;;;;;;3.29;57.31;99378.70;108426;1256;64657;-59
2024/02/09 07:54:02;;;;;;;4.90;1.50;;;;;;;3.37;57.16;99372.59;108433;1257;58813;-70
2024/02/09 07:56:31;;;;;;;5.00;2.00;;;;;;;3.45;57.18;99368.59;105375;1256;60467;-65
2024/02/09 07:58:58;;;;;;;5.00;1.40;;;;;;;3.50;57.18;99368.61;104169;1260;65474;-68
2024/02/09 08:01:26;;;;;;;5.30;1.80;;;;;;;3.55;57.14;99373.27;104074;1257;61376;-65
2024/02/09 08:03:57;;;;;;;4.70;2.00;;;;;;;3.60;57.08;99371.40;108458;1257;62754;-65
2024/02/09 08:06:25;;;;;;;5.60;2.00;;;;;;;3.64;56.90;99373.95;108528;1257;60042;-64
2024/02/09 08:08:53;;;;;;;5.80;2.00;;;;;;;3.64;56.60;99375.47;108471;1256;60194;-65
2024/02/09 08:11:21;;;;;;;6.30;2.50;;;;;;;3.62;56.34;99380.00;108580;1258;63779;-67
2024/02/09 08:13:52;;;;;;;5.90;1.70;;;;;;;3.59;56.33;99378.27;108557;1257;62676;-66
2024/02/09 08:16:20;;;;;;;6.00;1.80;;;;;;;3.57;56.24;99378.73;106122;1256;62479;-67
2024/02/09 08:18:49;;;;;;;5.80;2.50;;;;;;;3.52;56.15;99381.30;104252;1260;61445;-68
2024/02/09 08:21:23;;;;;;;4.80;1.90;;;;;;;3.49;56.25;99381.84;108470;1256;58371;-64
2024/02/09 08:23:51;;;;;;;5.90;2.50;;;;;;;3.49;56.22;99393.63;108459;1256;64930;-59
2024/02/09 08:26:19;;;;;;;7.20;2.20;;;;;;;3.47;56.20;99398.61;104165;1257;60821;-66
2024/02/09 08:28:47;;;;;;;5.60;1.80;;;;;;;3.45;56.18;99400.15;104068;1254;64910;-69
2024/02/09 08:31:19;;;;;;;4.50;1.90;;;;;;;3.45;56.25;99400.66;104013;1254;60613;-67
2024/02/09 08:33:47;;;;;;;5.90;2.40;;;;;;;3.43;56.26;99401.99;104049;1258;60426;-67
2024/02/09 08:36:23;;;;;;;6.20;2.30;;;;;;;3.46;56.08;99400.77;104092;1258;64927;-67
2024/02/09 08:38:51;;;;;;;3.50;1.10;;;;;;;3.55;55.85;99395.35;108530;1260;60251;-67
2024/02/09 08:41:18;;;;;;;4.10;1.50;;;;;;;3.62;55.66;99400.23;105799;1256;63162;-66
2024/02/09 08:43:46;;;;;;;4.90;1.80;;;;;;;3.68;55.69;99400.69;104082;1257;60876;-66
2024/02/09 08:46:14;;;;;;;3.80;1.20;;;;;;;3.74;55.73;99402.55;104101;1257;61797;-66
2024/02/09 08:48:42;;;;;;;6.50;1.90;;;;;;;3.81;55.68;99404.38;103980;1258;63694;-63
2024/02/09 08:51:10;;;;;;;7.50;2.30;;;;;;;3.83;55.69;99407.70;104143;1256;65369;-68
2024/02/09 08:53:38;;;;;;;5.70;2.10;;;;;;;3.82;55.70;99410.55;104122;1259;71353;-67
2024/02/09 08:56:09;;;;;;;6.20;2.40;;;;;;;3.81;55.66;99405.76;108473;1256;58588;-69
2024/02/09 08:58:37;;;;;;;6.20;2.40;;;;;;;3.81;55.66;99394.10;108587;1257;58844;-65
2024/02/09 09:01:05;;;;;;;6.40;3.20;;;;;;;3.81;55.50;99394.81;108484;1254;66065;-65
2024/02/09 09:03:33;;;;;;;6.00;1.90;;;;;;;3.80;55.30;99393.45;108601;1256;72609;-64
2024/02/09 09:06:03;;;;;;;6.30;2.30;;;;;;;3.78;55.18;99394.84;105468;1256;65026;-65
2024/02/09 09:08:31;;;;;;;5.10;1.70;;;;;;;3.75;55.10;99400.10;108486;1254;59846;-68
2024/02/09 09:10:59;;;;;;;6.40;2.50;;;;;;;3.73;55.25;99401.20;108468;1257;63957;-67
2024/02/09 09:13:27;;;;;;;6.90;2.90;;;;;;;3.75;55.29;99400.80;108545;1256;67210;-62
2024/02/09 09:15:54;;;;;;;5.20;1.90;;;;;;;3.77;55.16;99397.02;108386;1254;61992;-60
2024/02/09 09:18:22;;;;;;;5.70;2.40;;;;;;;3.76;55.07;99397.24;108456;1260;63938;-56
2024/02/09 09:20:52;;;;;;;7.10;2.40;;;;;;;3.74;55.05;99401.84;108544;1256;60293;-59
2024/02/09 09:23:20;;;;;;;5.50;2.30;;;;;;;3.74;55.07;99406.05;108493;1256;59478;-60
2024/02/09 09:25:48;;;;;;;5.50;1.90;;;;;;;3.78;54.83;99414.63;108413;1255;63794;-60
2024/02/09 09:28:19;;;;;;;5.50;2.00;;;;;;;3.86;54.73;99417.02;108488;1256;61872;-58
2024/02/09 09:30:47;;;;;;;6.10;2.00;;;;;;;3.95;54.54;99414.51;108463;1254;66676;-60
2024/02/09 09:33:15;;;;;;;5.30;1.70;;;;;;;4.05;54.58;99410.50;108560;1256;62389;-59
2024/02/09 09:35:42;;;;;;;6.10;2.40;;;;;;;4.14;54.54;99407.85;108502;1257;60105;-58
2024/02/09 09:38:10;;;;;;;5.80;2.60;;;;;;;4.18;54.30;99397.13;108473;1257;63902;-58
2024/02/09 09:40:39;;;;;;;7.90;1.70;;;;;;;4.19;54.13;99393.23;107910;1257;63481;-66
2024/02/09 09:43:08;;;;;;;6.20;2.40;;;;;;;4.19;54.26;99398.33;108491;1254;63819;-63
2024/02/09 09:45:36;;;;;;;5.90;2.50;;;;;;;4.20;54.36;99403.60;108460;1257;58502;-63
2024/02/09 09:48:04;;;;;;;4.60;2.10;;;;;;;4.21;54.26;99402.67;108492;1256;58438;-63
2024/02/09 09:50:32;;;;;;;5.10;1.90;;;;;;;4.19;54.08;99405.55;108453;1256;75979;-64
2024/02/09 09:53:02;;;;;;;6.40;2.30;;;;;;;4.16;54.02;99407.48;108493;1254;60838;-64
2024/02/09 09:55:30;;;;;;;5.00;2.00;;;;;;;4.14;53.94;99403.50;108548;1255;66004;-64
2024/02/09 09:57:58;;;;;;;6.00;2.50;;;;;;;4.10;53.96;99405.36;108306;1257;61260;-66
2024/02/09 10:00:26;;;;;;;6.50;3.00;;;;;;;4.08;53.98;99404.27;104765;1256;61077;-67
2024/02/09 10:02:54;;;;;;;5.50;1.80;;;;;;;4.04;53.96;99405.41;104118;1256;66337;-64
2024/02/09 10:05:21;;;;;;;6.30;1.80;;;;;;;4.00;54.09;99410.90;108568;1259;61872;-62
2024/02/09 10:07:49;;;;;;;6.30;3.00;;;;;;;3.97;54.17;99410.36;108557;1256;77537;-58
2024/02/09 10:10:17;;;;;;;6.50;1.90;;;;;;;3.96;54.40;99407.36;107623;1256;61741;-55
2024/02/09 10:12:45;;;;;;;7.60;2.40;;;;;;;3.95;54.44;99403.20;104020;1258;60629;-54
2024/02/09 10:15:13;;;;;;;9.00;2.70;;;;;;;3.93;54.51;99399.90;104115;1256;68444;-54
2024/02/09 10:17:41;;;;;;;5.60;2.40;;;;;;;3.93;54.61;99396.63;108425;1256;72136;-54
2024/02/09 10:20:10;;;;;;;5.90;2.20;;;;;;;3.99;54.61;99399.35;105348;1256;66507;-54
2024/02/09 10:22:37;;;;;;;6.00;2.30;;;;;;;4.08;54.45;99407.41;105359;1256;61981;-54
2024/02/09 10:25:07;;;;;;;4.20;1.30;;;;;;;4.19;54.32;99408.39;104446;1256;60624;-55
2024/02/09 10:27:35;;;;;;;6.00;1.60;;;;;;;4.29;54.13;99407.17;108122;1256;65857;-55
2024/02/09 10:30:03;;;;;;;8.60;1.80;;;;;;;4.39;53.97;99411.52;103920;1260;60485;-57
2024/02/09 10:32:32;;;;;;;6.20;2.40;;;;;;;4.39;54.05;99404.52;104056;1256;63894;-57
2024/02/09 10:35:00;;;;;;;5.60;1.80;;;;;;;4.40;53.85;99410.58;108212;1256;60584;-56
2024/02/09 10:37:28;;;;;;;6.70;2.10;;;;;;;4.37;53.66;99411.61;104141;1256;62202;-57
2024/02/09 10:39:59;;;;;;;7.70;2.60;;;;;;;4.35;53.45;99412.84;104204;1256;63882;-55
2024/02/09 10:42:28;;;;;;;7.50;2.50;;;;;;;4.29;53.42;99412.33;104166;1256;62435;-55
2024/02/09 10:44:57;;;;;;;6.00;2.20;;;;;;;4.23;53.47;99419.34;104129;1256;62568;-56
2024/02/09 10:47:37;;;;;;;6.70;2.10;;;;;;;4.19;53.58;99421.41;108447;1256;61373;-56
2024/02/09 10:50:10;;;;;;;5.60;3.00;;;;;;;4.16;53.59;99419.67;108421;1254;62206;-56
2024/02/09 10:52:43;;;;;;;5.40;1.90;;;;;;;4.12;53.64;99423.29;108318;1254;79525;-56
2024/02/09 10:55:14;;;;;;;5.70;1.90;;;;;;;4.05;53.66;99425.45;108454;1255;60775;-56
2024/02/09 10:57:43;;;;;;;9.50;2.60;;;;;;;3.99;53.75;99423.28;108751;1256;74889;-56
2024/02/09 11:00:11;;;;;;;6.20;2.40;;;;;;;3.96;53.83;99422.46;108361;1256;60051;-57
2024/02/09 11:02:39;;;;;;;6.50;2.70;;;;;;;3.96;53.88;99426.09;105143;1258;60467;-56
2024/02/09 11:05:06;;;;;;;7.00;2.90;;;;;;;4.02;53.85;99420.95;103876;1256;64068;-56
2024/02/09 11:07:34;;;;;;;7.50;2.80;;;;;;;4.12;53.86;99416.85;108429;1258;64243;-57
2024/02/09 11:10:06;;;;;;;5.50;2.40;;;;;;;4.20;53.81;99416.27;105672;1256;62620;-54
2024/02/09 11:12:34;;;;;;;5.70;2.40;;;;;;;4.21;53.89;99412.01;104148;1256;62121;-55
2024/02/09 11:15:14;;;;;;;6.40;2.40;;;;;;;4.23;53.92;99410.15;104174;1256;60406;-57
2024/02/09 11:17:44;;;;;;;7.40;2.80;;;;;;;4.23;53.97;99399.35;104102;1256;76123;-55
2024/02/09 11:20:13;;;;;;;5.60;1.60;;;;;;;4.23;53.87;99396.96;104340;1256;63580;-54
2024/02/09 11:22:47;;;;;;;8.50;3.10;;;;;;;4.21;53.81;99398.02;106128;1256;62613;-57
2024/02/09 11:25:22;;;;;;;7.20;2.30;;;;;;;4.17;53.91;99402.95;105958;1256;60497;-56
2024/02/09 11:27:51;;;;;;;5.90;2.60;;;;;;;4.16;53.95;99404.94;105764;1257;60506;-54
2024/02/09 11:30:20;;;;;;;6.20;2.10;;;;;;;4.12;53.96;99408.64;105727;1257;66901;-56
2024/02/09 11:32:48;;;;;;;5.50;2.50;;;;;;;4.08;54.09;99406.82;105072;1257;62117;-56
2024/02/09 11:35:16;;;;;;;8.40;3.40;;;;;;;4.07;54.17;99409.66;105032;1257;66084;-57
2024/02/09 11:37:45;;;;;;;7.80;3.10;;;;;;;4.05;54.16;99407.06;106489;1256;60659;-55
2024/02/09 11:40:16;;;;;;;6.50;2.70;;;;;;;4.02;54.28;99413.89;105238;1256;60480;-55
2024/02/09 11:42:45;;;;;;;5.60;2.00;;;;;;;3.97;54.41;99428.41;105031;1256;65088;-56
2024/02/09 11:45:13;;;;;;;10.30;3.30;;;;;;;3.95;54.48;99425.30;105867;1260;61511;-56
2024/02/09 11:47:41;;;;;;;5.60;2.40;;;;;;;3.95;54.49;99419.74;104994;1256;62785;-55
2024/02/09 11:50:22;;;;;;;5.40;1.90;;;;;;;4.03;54.43;99408.44;105233;1256;64104;-51
2024/02/09 11:52:53;;;;;;;6.20;2.50;;;;;;;4.10;54.43;99411.25;105685;1256;62262;-56
2024/02/09 11:55:42;;;;;;;5.60;2.30;;;;;;;4.19;54.46;99417.59;105227;1261;76024;-55
2024/02/09 11:58:12;;;;;;;7.20;2.10;;;;;;;4.23;54.38;99431.69;105139;1259;63073;-57
2024/02/09 12:00:40;;;;;;;6.40;2.20;;;;;;;4.26;54.45;99434.95;105058;1257;65960;-56
2024/02/09 12:03:10;;;;;;;7.20;2.20;;;;;;;4.30;54.43;99435.60;105105;1256;61593;-54
2024/02/09 12:05:44;;;;;;;7.20;3.10;;;;;;;4.31;54.22;99432.87;105163;1260;62242;-54
2024/02/09 12:08:18;;;;;;;7.70;3.10;;;;;;;4.28;54.17;99433.25;105066;1254;65128;-54
2024/02/09 12:10:50;;;;;;;7.10;2.60;;;;;;;4.24;54.25;99442.38;104953;1260;60642;-55
2024/02/09 12:13:19;;;;;;;8.10;2.60;;;;;;;4.23;54.31;99448.86;108948;1256;64160;-55
2024/02/09 12:15:47;;;;;;;5.80;2.30;;;;;;;4.23;54.20;99443.69;108908;1256;58599;-55
2024/02/09 12:18:15;;;;;;;6.60;2.40;;;;;;;4.21;54.19;99453.55;108950;1256;58191;-56
2024/02/09 12:20:43;;;;;;;7.20;3.00;;;;;;;4.19;54.11;99458.17;109026;1255;64072;-55
2024/02/09 12:23:11;;;;;;;8.10;2.30;;;;;;;4.17;54.17;99464.95;108985;1256;62438;-56
2024/02/09 12:25:40;;;;;;;6.40;2.20;;;;;;;4.13;54.03;99470.02;108824;1260;63933;-56
2024/02/09 12:28:10;;;;;;;7.20;2.60;;;;;;;4.07;54.11;99471.45;106023;1259;60311;-56
2024/02/09 12:30:42;;;;;;;5.70;2.20;;;;;;;4.04;54.20;99474.14;105201;1256;62239;-55
2024/02/09 12:33:11;;;;;;;6.80;2.60;;;;;;;4.03;54.11;99481.69;105151;1254;63650;-56
2024/02/09 12:35:41;;;;;;;6.70;2.80;;;;;;;4.06;54.22;99485.10;105037;1257;63664;-55
2024/02/09 12:38:09;;;;;;;7.10;2.50;;;;;;;4.12;54.19;99477.92;105137;1257;62604;-55
2024/02/09 12:40:40;;;;;;;6.30;2.40;;;;;;;4.16;54.12;99474.85;105289;1254;61653;-56
2024/02/09 12:43:12;;;;;;;7.00;2.60;;;;;;;4.17;54.16;99480.73;105116;1258;60540;-54
2024/02/09 12:45:40;;;;;;;7.30;2.80;;;;;;;4.16;54.22;99483.52;105136;1257;63734;-53
2024/02/09 12:48:08;;;;;;;10.10;2.90;;;;;;;4.13;54.28;99492.63;105111;1260;60627;-54
2024/02/09 12:50:37;;;;;;;7.70;2.20;;;;;;;4.07;54.36;99491.80;105374;1256;74828;-53
2024/02/09 12:53:05;;;;;;;7.10;2.10;;;;;;;4.04;54.39;99494.27;105449;1256;60512;-55
2024/02/09 12:55:33;;;;;;;7.10;2.40;;;;;;;4.00;54.49;99496.61;105053;1256;65623;-55
2024/02/09 12:58:01;;;;;;;5.60;2.30;;;;;;;3.98;54.72;99499.69;105095;1256;63751;-56
2024/02/09 13:00:30;;;;;;;6.10;2.00;;;;;;;3.96;54.81;99498.61;105368;1258;63201;-56
2024/02/09 13:02:57;;;;;;;7.00;3.20;;;;;;;3.94;54.91;99494.22;105113;1256;74925;-56
2024/02/09 13:05:25;;;;;;;6.50;2.50;;;;;;;3.93;54.97;99486.35;104694;1258;522667;-56
2024/02/09 13:21:12;;;;;;;7.30;2.70;;;;;;;4.08;55.12;99468.16;102945;1288;603938;-55
2024/02/09 13:23:40;;;;;;;6.30;2.60;;;;;;;4.78;53.32;99456.52;104430;1267;147569;-55
2024/02/09 13:26:11;;;;;;;10.50;2.90;;;;;;;4.72;53.06;99456.77;104748;1266;59385;-55
2024/02/09 13:28:39;;;;;;;8.10;4.00;;;;;;;4.61;53.09;99449.55;104519;1272;64065;-55
2024/02/09 13:31:10;;;;;;;8.30;3.40;;;;;;;4.51;53.18;99452.31;104877;1269;62928;-55
2024/02/09 13:33:38;;;;;;;5.50;2.20;;;;;;;4.41;53.31;99456.15;105604;1269;64187;-59
2024/02/09 13:36:05;;;;;;;6.50;3.10;;;;;;;4.30;53.45;99464.75;105163;1258;59307;-59
2024/02/09 13:38:36;;;;;;;7.30;2.50;;;;;;;4.17;53.61;99472.70;105425;1256;59270;-59
2024/02/09 13:41:03;;;;;;;7.00;2.40;;;;;;;4.08;53.88;99483.20;105401;1257;63363;-59
2024/02/09 13:43:31;;;;;;;6.90;2.60;;;;;;;4.08;54.06;99484.45;105485;1257;61715;-59
2024/02/09 13:45:59;;;;;;;9.80;3.10;;;;;;;4.15;54.18;99483.98;105627;1262;65610;-59
2024/02/09 13:48:28;;;;;;;7.70;4.00;;;;;;;4.20;54.29;99484.52;105820;1258;59744;-59
2024/02/09 13:50:57;;;;;;;7.70;2.40;;;;;;;4.19;54.15;99487.54;105596;1258;59712;-57
2024/02/09 13:53:24;;;;;;;7.60;2.70;;;;;;;4.14;54.33;99490.64;106430;1259;64099;-58
2024/02/09 13:55:52;;;;;;;8.80;3.10;;;;;;;4.09;54.46;99495.46;105182;1257;61756;-59
2024/02/09 13:58:23;;;;;;;7.00;2.70;;;;;;;4.06;54.53;99492.37;106050;1260;63954;-59